createdAt,value
2022-12-03T00:00:44.522Z,10.57
2022-12-03T00:06:46.323Z,13.00
2022-12-03T00:12:48.297Z,11.65
2022-12-03T00:18:50.261Z,11.98
2022-12-03T00:24:52.470Z,10.85
2022-12-03T00:30:54.590Z,11.48
2022-12-03T00:36:56.501Z,11.18
2022-12-03T00:42:58.417Z,10.93
2022-12-03T00:49:00.509Z,14.27
2022-12-03T00:55:02.383Z,17.05
2022-12-03T01:01:04.268Z,17.63
2022-12-03T01:07:06.199Z,17.40
2022-12-03T01:13:08.070Z,17.00
2022-12-03T01:19:11.207Z,17.98
2022-12-03T01:25:13.071Z,17.38
2022-12-03T01:31:33.565Z,19.30
2022-12-03T01:37:35.525Z,18.13
2022-12-03T01:43:38.010Z,19.50
2022-12-03T01:50:14.778Z,19.08
2022-12-03T01:56:18.577Z,18.50
2022-12-03T02:02:27.102Z,18.65
2022-12-03T02:08:32.010Z,20.45
2022-12-03T02:14:33.927Z,18.35
2022-12-03T02:20:44.320Z,19.88
2022-12-03T02:26:46.372Z,18.17
2022-12-03T02:32:50.035Z,18.42
2022-12-03T02:38:52.175Z,19.05
2022-12-03T02:44:57.506Z,18.90
2022-12-03T02:51:04.341Z,18.83
2022-12-03T02:57:06.492Z,18.27
2022-12-03T03:03:09.104Z,18.30
2022-12-03T03:09:11.004Z,19.48
2022-12-03T03:15:13.902Z,19.38
2022-12-03T03:21:15.974Z,18.08
2022-12-03T03:27:17.955Z,18.02
2022-12-03T03:33:20.222Z,18.08
2022-12-03T03:39:22.470Z,17.48
2022-12-03T03:45:29.161Z,17.10
2022-12-03T03:51:33.027Z,16.00
2022-12-03T03:57:35.133Z,16.38
2022-12-03T04:03:37.560Z,17.02
2022-12-03T04:09:39.782Z,16.38
2022-12-03T04:15:41.723Z,16.20
2022-12-03T04:22:02.132Z,16.38
2022-12-03T04:28:22.602Z,17.23
2022-12-03T04:34:43.483Z,17.10
2022-12-03T04:41:04.465Z,19.08
2022-12-03T04:47:15.035Z,17.42
2022-12-03T04:53:17.120Z,17.38
2022-12-03T04:59:19.399Z,18.30
2022-12-03T05:05:21.338Z,17.25
2022-12-03T05:11:23.226Z,16.70
2022-12-03T05:17:25.137Z,16.27
2022-12-03T05:23:27.050Z,15.48
2022-12-03T05:29:28.881Z,15.13
2022-12-03T05:35:31.045Z,15.95
2022-12-03T05:41:51.309Z,15.35
2022-12-03T05:47:55.336Z,15.82
2022-12-03T05:53:57.333Z,14.93
2022-12-03T05:59:59.153Z,15.00
2022-12-03T06:06:04.053Z,16.08
2022-12-03T06:12:07.041Z,15.65
2022-12-03T06:18:09.196Z,15.43
2022-12-03T06:24:11.478Z,13.40
2022-12-03T06:30:14.904Z,14.02
2022-12-03T06:36:22.580Z,14.73
2022-12-03T06:42:25.555Z,14.00
2022-12-03T06:48:30.837Z,14.90
2022-12-03T06:54:32.848Z,14.02
2022-12-03T07:00:34.850Z,13.43
2022-12-03T07:06:36.689Z,13.73
2022-12-03T07:12:38.550Z,11.63
2022-12-03T07:18:40.440Z,11.38
2022-12-03T07:24:42.934Z,13.00
2022-12-03T07:30:44.781Z,11.55
2022-12-03T07:36:46.635Z,10.00
2022-12-03T07:42:48.492Z,10.25
2022-12-03T07:48:50.423Z,9.88
2022-12-03T07:54:52.512Z,9.05
2022-12-03T08:00:54.628Z,9.40
2022-12-03T08:06:56.643Z,9.27
2022-12-03T08:12:59.665Z,9.65
2022-12-03T08:19:02.571Z,9.95
2022-12-03T08:25:13.046Z,9.93
2022-12-03T08:31:32.284Z,9.88
2022-12-03T08:37:36.378Z,10.48
2022-12-03T08:43:42.995Z,10.30
2022-12-03T08:49:51.916Z,10.70
2022-12-03T08:55:59.705Z,10.55
2022-12-03T09:02:01.860Z,10.85
2022-12-03T09:08:03.935Z,10.77
2022-12-03T09:14:06.477Z,11.25
2022-12-03T09:20:08.876Z,12.70
2022-12-03T09:26:10.779Z,11.68
2022-12-03T09:32:18.124Z,12.60
2022-12-03T09:38:20.529Z,13.63
2022-12-03T09:44:22.606Z,13.27
2022-12-03T09:50:26.840Z,12.00
2022-12-03T09:56:29.291Z,13.23
2022-12-03T10:02:31.569Z,12.93
2022-12-03T10:08:33.521Z,12.38
2022-12-03T10:14:35.403Z,13.25
2022-12-03T10:20:37.263Z,14.30
2022-12-03T10:26:42.210Z,13.68
2022-12-03T10:32:50.696Z,13.93
2022-12-03T10:39:13.190Z,14.20
2022-12-03T10:45:18.548Z,14.15
2022-12-03T10:51:21.815Z,13.88
2022-12-03T10:57:23.834Z,12.77
2022-12-03T11:03:27.987Z,13.00
2022-12-03T11:09:34.424Z,15.23
2022-12-03T11:15:45.260Z,14.90
2022-12-03T11:22:05.600Z,20.58
2022-12-03T11:28:31.023Z,14.27
2022-12-03T11:34:32.834Z,21.83
2022-12-03T11:40:39.564Z,13.25
2022-12-03T11:46:46.532Z,14.13
2022-12-03T11:52:53.721Z,14.63
2022-12-03T11:59:17.201Z,15.07
2022-12-03T12:05:26.957Z,20.90
2022-12-03T12:11:40.441Z,17.15
2022-12-03T12:17:42.319Z,20.48
2022-12-03T12:23:44.800Z,25.15
2022-12-03T12:29:53.004Z,28.48
2022-12-03T12:35:56.145Z,60.28
2022-12-03T12:41:58.554Z,23.70
2022-12-03T12:48:15.369Z,23.75
2022-12-03T12:54:18.527Z,25.83
2022-12-03T13:00:23.174Z,24.60
2022-12-03T13:06:31.177Z,22.48
2022-12-03T13:12:33.232Z,23.35
2022-12-03T13:18:47.684Z,20.95
2022-12-03T13:24:56.056Z,21.88
2022-12-03T13:31:23.141Z,25.27
2022-12-03T13:37:28.394Z,26.87
2022-12-03T13:43:38.755Z,32.90
2022-12-03T13:49:52.051Z,28.60
2022-12-03T13:56:00.437Z,30.27
2022-12-03T14:02:02.387Z,29.48
2022-12-03T14:08:06.029Z,30.25
2022-12-03T14:14:07.999Z,47.72
2022-12-03T14:20:10.296Z,31.27
2022-12-03T14:26:12.203Z,31.75
2022-12-03T14:32:14.245Z,33.38
